sensor_id;sensor_type;location;lat;lon;timestamp;temperature;humidity
52963;DHT22;38827;53.024;6.596;2023-02-28T00:00:56;5.20;73.00
52963;DHT22;38827;53.024;6.596;2023-02-28T00:07:55;5.20;73.20
52963;DHT22;38827;53.024;6.596;2023-02-28T00:26:00;5.20;73.60
52963;DHT22;38827;53.024;6.596;2023-02-28T00:33:01;5.20;73.70
52963;DHT22;38827;53.024;6.596;2023-02-28T00:35:34;5.30;73.80
52963;DHT22;38827;53.024;6.596;2023-02-28T00:38:15;5.20;74.00
52963;DHT22;38827;53.024;6.596;2023-02-28T00:41:00;5.20;74.00
52963;DHT22;38827;53.024;6.596;2023-02-28T00:44:00;5.20;74.00
52963;DHT22;38827;53.024;6.596;2023-02-28T00:46:27;5.20;74.30
52963;DHT22;38827;53.024;6.596;2023-02-28T00:48:53;5.20;74.40
52963;DHT22;38827;53.024;6.596;2023-02-28T00:55:09;5.30;74.70
52963;DHT22;38827;53.024;6.596;2023-02-28T00:57:47;5.20;74.70
52963;DHT22;38827;53.024;6.596;2023-02-28T01:00:28;5.20;74.90
52963;DHT22;38827;53.024;6.596;2023-02-28T01:05:54;5.20;75.10
52963;DHT22;38827;53.024;6.596;2023-02-28T01:08:23;5.20;75.20
52963;DHT22;38827;53.024;6.596;2023-02-28T01:11:14;5.20;75.30
52963;DHT22;38827;53.024;6.596;2023-02-28T01:14:17;5.20;75.30
52963;DHT22;38827;53.024;6.596;2023-02-28T01:17:20;5.20;75.40
52963;DHT22;38827;53.024;6.596;2023-02-28T01:21:07;5.20;75.50
52963;DHT22;38827;53.024;6.596;2023-02-28T01:27:18;5.20;75.40
52963;DHT22;38827;53.024;6.596;2023-02-28T01:33:44;5.20;75.40
52963;DHT22;38827;53.024;6.596;2023-02-28T01:36:42;5.20;75.60
52963;DHT22;38827;53.024;6.596;2023-02-28T01:59:07;5.20;75.80
52963;DHT22;38827;53.024;6.596;2023-02-28T02:11:34;5.20;75.60
52963;DHT22;38827;53.024;6.596;2023-02-28T02:43:13;5.00;76.50
52963;DHT22;38827;53.024;6.596;2023-02-28T02:49:05;4.80;76.90
52963;DHT22;38827;53.024;6.596;2023-02-28T02:52:23;4.80;77.20
52963;DHT22;38827;53.024;6.596;2023-02-28T03:04:25;4.70;77.70
52963;DHT22;38827;53.024;6.596;2023-02-28T03:10:46;4.70;78.20
52963;DHT22;38827;53.024;6.596;2023-02-28T03:17:36;4.50;78.40
52963;DHT22;38827;53.024;6.596;2023-02-28T03:31:43;4.30;79.10
52963;DHT22;38827;53.024;6.596;2023-02-28T03:43:24;4.10;79.10
52963;DHT22;38827;53.024;6.596;2023-02-28T03:50:22;4.00;79.10
52963;DHT22;38827;53.024;6.596;2023-02-28T04:01:47;4.00;79.20
52963;DHT22;38827;53.024;6.596;2023-02-28T04:07:48;4.00;79.20
52963;DHT22;38827;53.024;6.596;2023-02-28T04:10:33;4.00;79.60
52963;DHT22;38827;53.024;6.596;2023-02-28T04:13:30;4.00;79.20
52963;DHT22;38827;53.024;6.596;2023-02-28T04:15:59;4.00;79.30
52963;DHT22;38827;53.024;6.596;2023-02-28T04:21:07;3.90;79.70
52963;DHT22;38827;53.024;6.596;2023-02-28T04:23:56;3.90;79.90
52963;DHT22;38827;53.024;6.596;2023-02-28T04:26:50;3.90;80.00
52963;DHT22;38827;53.024;6.596;2023-02-28T04:29:32;4.00;79.90
52963;DHT22;38827;53.024;6.596;2023-02-28T04:32:07;4.00;79.90
52963;DHT22;38827;53.024;6.596;2023-02-28T04:34:58;4.00;79.90
52963;DHT22;38827;53.024;6.596;2023-02-28T04:37:35;4.00;79.80
52963;DHT22;38827;53.024;6.596;2023-02-28T04:40:11;4.00;80.00
52963;DHT22;38827;53.024;6.596;2023-02-28T04:45:22;4.00;80.00
52963;DHT22;38827;53.024;6.596;2023-02-28T04:48:26;4.10;80.20
52963;DHT22;38827;53.024;6.596;2023-02-28T04:58:53;4.00;79.90
52963;DHT22;38827;53.024;6.596;2023-02-28T05:01:50;4.00;79.90
52963;DHT22;38827;53.024;6.596;2023-02-28T05:04:21;4.00;79.90
52963;DHT22;38827;53.024;6.596;2023-02-28T05:10:06;4.00;79.70
52963;DHT22;38827;53.024;6.596;2023-02-28T05:15:44;3.90;79.80
52963;DHT22;38827;53.024;6.596;2023-02-28T05:22:31;3.90;79.80
52963;DHT22;38827;53.024;6.596;2023-02-28T05:25:22;3.80;79.70
52963;DHT22;38827;53.024;6.596;2023-02-28T05:27:50;3.80;79.60
52963;DHT22;38827;53.024;6.596;2023-02-28T05:30:16;3.80;80.00
52963;DHT22;38827;53.024;6.596;2023-02-28T05:36:28;3.70;79.60
52963;DHT22;38827;53.024;6.596;2023-02-28T05:38:54;3.70;79.80
52963;DHT22;38827;53.024;6.596;2023-02-28T05:41:56;3.70;79.80
52963;DHT22;38827;53.024;6.596;2023-02-28T05:44:28;3.70;79.80
52963;DHT22;38827;53.024;6.596;2023-02-28T05:50:23;3.70;79.60
52963;DHT22;38827;53.024;6.596;2023-02-28T05:53:29;3.60;79.50
52963;DHT22;38827;53.024;6.596;2023-02-28T05:56:11;3.60;79.50
52963;DHT22;38827;53.024;6.596;2023-02-28T06:02:23;3.60;79.80
52963;DHT22;38827;53.024;6.596;2023-02-28T06:53:56;3.50;79.20
52963;DHT22;38827;53.024;6.596;2023-02-28T06:56:40;3.50;79.20
52963;DHT22;38827;53.024;6.596;2023-02-28T06:59:06;3.60;79.30
52963;DHT22;38827;53.024;6.596;2023-02-28T07:01:47;3.60;79.40
52963;DHT22;38827;53.024;6.596;2023-02-28T07:04:22;3.70;79.30
52963;DHT22;38827;53.024;6.596;2023-02-28T07:07:07;3.70;79.40
52963;DHT22;38827;53.024;6.596;2023-02-28T07:09:46;3.70;79.40
52963;DHT22;38827;53.024;6.596;2023-02-28T07:12:12;3.70;79.40
52963;DHT22;38827;53.024;6.596;2023-02-28T07:14:44;3.70;79.30
52963;DHT22;38827;53.024;6.596;2023-02-28T07:20:56;3.80;79.30
52963;DHT22;38827;53.024;6.596;2023-02-28T07:23:34;3.80;79.50
52963;DHT22;38827;53.024;6.596;2023-02-28T07:26:15;3.80;79.20
52963;DHT22;38827;53.024;6.596;2023-02-28T07:28:43;3.90;79.20
52963;DHT22;38827;53.024;6.596;2023-02-28T07:34:51;3.90;79.10
52963;DHT22;38827;53.024;6.596;2023-02-28T07:37:20;3.90;79.20
52963;DHT22;38827;53.024;6.596;2023-02-28T07:48:55;4.10;79.50
52963;DHT22;38827;53.024;6.596;2023-02-28T07:51:55;4.10;79.50
52963;DHT22;38827;53.024;6.596;2023-02-28T08:01:09;4.10;78.80
52963;DHT22;38827;53.024;6.596;2023-02-28T08:04:00;4.10;79.20
52963;DHT22;38827;53.024;6.596;2023-02-28T08:13:10;4.30;78.90
52963;DHT22;38827;53.024;6.596;2023-02-28T08:19:32;4.50;78.50
52963;DHT22;38827;53.024;6.596;2023-02-28T08:22:23;4.60;78.30
52963;DHT22;38827;53.024;6.596;2023-02-28T08:25:24;4.60;77.80
52963;DHT22;38827;53.024;6.596;2023-02-28T08:28:14;4.70;77.90
52963;DHT22;38827;53.024;6.596;2023-02-28T09:12:43;8.60;71.50
52963;DHT22;38827;53.024;6.596;2023-02-28T09:16:13;10.00;68.30
52963;DHT22;38827;53.024;6.596;2023-02-28T09:22:13;13.10;62.10
52963;DHT22;38827;53.024;6.596;2023-02-28T10:27:42;20.30;35.00
52963;DHT22;38827;53.024;6.596;2023-02-28T10:30:54;20.90;34.70
52963;DHT22;38827;53.024;6.596;2023-02-28T10:46:16;22.20;30.10
52963;DHT22;38827;53.024;6.596;2023-02-28T11:29:18;24.70;29.00
52963;DHT22;38827;53.024;6.596;2023-02-28T12:16:55;15.90;34.30
52963;DHT22;38827;53.024;6.596;2023-02-28T12:22:30;15.30;34.60
52963;DHT22;38827;53.024;6.596;2023-02-28T12:27:59;14.60;35.90
52963;DHT22;38827;53.024;6.596;2023-02-28T12:30:35;13.80;37.00
52963;DHT22;38827;53.024;6.596;2023-02-28T12:33:09;13.50;37.80
52963;DHT22;38827;53.024;6.596;2023-02-28T12:35:48;14.20;37.60
52963;DHT22;38827;53.024;6.596;2023-02-28T12:38:29;15.90;35.60
52963;DHT22;38827;53.024;6.596;2023-02-28T12:41:00;17.40;34.70
52963;DHT22;38827;53.024;6.596;2023-02-28T12:43:40;19.00;33.00
52963;DHT22;38827;53.024;6.596;2023-02-28T12:46:24;20.30;31.60
52963;DHT22;38827;53.024;6.596;2023-02-28T12:49:04;21.20;30.50
52963;DHT22;38827;53.024;6.596;2023-02-28T12:51:50;21.70;29.30
52963;DHT22;38827;53.024;6.596;2023-02-28T12:54:35;22.30;28.30
52963;DHT22;38827;53.024;6.596;2023-02-28T12:59:57;23.20;28.20
52963;DHT22;38827;53.024;6.596;2023-02-28T13:05:30;23.90;28.00
52963;DHT22;38827;53.024;6.596;2023-02-28T13:10:47;24.00;27.40
52963;DHT22;38827;53.024;6.596;2023-02-28T13:13:22;24.40;26.60
52963;DHT22;38827;53.024;6.596;2023-02-28T13:16:09;24.60;26.50
52963;DHT22;38827;53.024;6.596;2023-02-28T13:18:46;24.60;26.80
52963;DHT22;38827;53.024;6.596;2023-02-28T13:21:29;24.80;26.90
52963;DHT22;38827;53.024;6.596;2023-02-28T13:24:03;25.10;26.40
52963;DHT22;38827;53.024;6.596;2023-02-28T13:35:46;24.40;26.40
52963;DHT22;38827;53.024;6.596;2023-02-28T13:38:22;24.20;26.00
52963;DHT22;38827;53.024;6.596;2023-02-28T13:50:35;22.70;27.10
52963;DHT22;38827;53.024;6.596;2023-02-28T13:53:34;22.30;27.00
52963;DHT22;38827;53.024;6.596;2023-02-28T13:56:51;20.50;27.70
52963;DHT22;38827;53.024;6.596;2023-02-28T14:11:32;20.10;28.60
52963;DHT22;38827;53.024;6.596;2023-02-28T14:14:09;20.60;28.40
52963;DHT22;38827;53.024;6.596;2023-02-28T14:36:00;21.00;28.00
52963;DHT22;38827;53.024;6.596;2023-02-28T14:41:30;21.00;27.80
52963;DHT22;38827;53.024;6.596;2023-02-28T14:47:23;21.30;27.50
52963;DHT22;38827;53.024;6.596;2023-02-28T14:50:04;21.20;27.10
52963;DHT22;38827;53.024;6.596;2023-02-28T14:56:24;20.60;27.60
52963;DHT22;38827;53.024;6.596;2023-02-28T14:58:57;19.80;28.50
52963;DHT22;38827;53.024;6.596;2023-02-28T15:01:54;19.60;28.50
52963;DHT22;38827;53.024;6.596;2023-02-28T15:04:39;19.40;28.50
52963;DHT22;38827;53.024;6.596;2023-02-28T15:07:25;19.20;28.90
52963;DHT22;38827;53.024;6.596;2023-02-28T15:13:19;19.10;29.30
52963;DHT22;38827;53.024;6.596;2023-02-28T15:23:05;18.60;29.40
52963;DHT22;38827;53.024;6.596;2023-02-28T15:25:53;18.10;30.20
52963;DHT22;38827;53.024;6.596;2023-02-28T15:28:20;17.80;30.40
52963;DHT22;38827;53.024;6.596;2023-02-28T15:31:03;17.20;30.90
52963;DHT22;38827;53.024;6.596;2023-02-28T15:34:18;16.60;31.40
52963;DHT22;38827;53.024;6.596;2023-02-28T15:36:38;15.80;32.60
52963;DHT22;38827;53.024;6.596;2023-02-28T15:39:28;14.90;33.80
52963;DHT22;38827;53.024;6.596;2023-02-28T15:44:52;14.70;34.90
52963;DHT22;38827;53.024;6.596;2023-02-28T15:47:49;14.60;34.40
52963;DHT22;38827;53.024;6.596;2023-02-28T15:50:22;14.40;34.60
52963;DHT22;38827;53.024;6.596;2023-02-28T15:53:19;14.10;34.80
52963;DHT22;38827;53.024;6.596;2023-02-28T15:56:23;13.40;35.80
52963;DHT22;38827;53.024;6.596;2023-02-28T16:01:46;11.90;37.70
52963;DHT22;38827;53.024;6.596;2023-02-28T16:04:20;11.40;38.50
52963;DHT22;38827;53.024;6.596;2023-02-28T16:09:19;11.00;39.30
52963;DHT22;38827;53.024;6.596;2023-02-28T16:11:53;10.30;40.10
52963;DHT22;38827;53.024;6.596;2023-02-28T16:14:40;10.10;40.70
52963;DHT22;38827;53.024;6.596;2023-02-28T16:17:35;10.00;41.10
52963;DHT22;38827;53.024;6.596;2023-02-28T16:20:15;9.80;42.10
52963;DHT22;38827;53.024;6.596;2023-02-28T16:22:55;9.70;42.00
52963;DHT22;38827;53.024;6.596;2023-02-28T16:25:43;9.50;42.40
52963;DHT22;38827;53.024;6.596;2023-02-28T16:28:29;9.30;43.40
52963;DHT22;38827;53.024;6.596;2023-02-28T16:31:10;9.20;44.20
52963;DHT22;38827;53.024;6.596;2023-02-28T16:33:44;9.00;44.40
52963;DHT22;38827;53.024;6.596;2023-02-28T16:36:23;8.90;44.80
52963;DHT22;38827;53.024;6.596;2023-02-28T16:39:03;8.80;45.20
52963;DHT22;38827;53.024;6.596;2023-02-28T16:41:32;8.60;45.40
52963;DHT22;38827;53.024;6.596;2023-02-28T16:43:59;8.50;45.80
52963;DHT22;38827;53.024;6.596;2023-02-28T16:46:31;8.40;46.30
52963;DHT22;38827;53.024;6.596;2023-02-28T16:49:01;8.30;46.70
52963;DHT22;38827;53.024;6.596;2023-02-28T16:55:11;8.20;47.40
52963;DHT22;38827;53.024;6.596;2023-02-28T16:57:40;8.10;47.60
52963;DHT22;38827;53.024;6.596;2023-02-28T17:00:16;8.00;47.40
52963;DHT22;38827;53.024;6.596;2023-02-28T17:02:54;7.90;48.10
52963;DHT22;38827;53.024;6.596;2023-02-28T17:06:04;7.80;48.40
52963;DHT22;38827;53.024;6.596;2023-02-28T17:11:18;7.60;48.80
52963;DHT22;38827;53.024;6.596;2023-02-28T17:19:45;7.30;50.10
52963;DHT22;38827;53.024;6.596;2023-02-28T17:26:55;7.10;50.60
52963;DHT22;38827;53.024;6.596;2023-02-28T17:29:27;6.90;50.40
52963;DHT22;38827;53.024;6.596;2023-02-28T17:31:53;6.90;50.70
52963;DHT22;38827;53.024;6.596;2023-02-28T17:36:53;6.80;51.40
52963;DHT22;38827;53.024;6.596;2023-02-28T17:42:02;6.70;52.20
52963;DHT22;38827;53.024;6.596;2023-02-28T17:44:33;6.70;52.60
52963;DHT22;38827;53.024;6.596;2023-02-28T17:47:09;6.60;53.10
52963;DHT22;38827;53.024;6.596;2023-02-28T17:49:38;6.60;53.10
52963;DHT22;38827;53.024;6.596;2023-02-28T17:52:04;6.50;52.90
52963;DHT22;38827;53.024;6.596;2023-02-28T17:54:30;6.40;53.00
52963;DHT22;38827;53.024;6.596;2023-02-28T17:56:56;6.40;52.90
52963;DHT22;38827;53.024;6.596;2023-02-28T17:59:24;6.30;53.10
52963;DHT22;38827;53.024;6.596;2023-02-28T18:01:53;6.20;53.50
52963;DHT22;38827;53.024;6.596;2023-02-28T18:04:18;6.20;53.90
52963;DHT22;38827;53.024;6.596;2023-02-28T18:06:44;6.10;54.00
52963;DHT22;38827;53.024;6.596;2023-02-28T18:09:22;6.00;54.20
52963;DHT22;38827;53.024;6.596;2023-02-28T18:11:52;6.00;54.40
52963;DHT22;38827;53.024;6.596;2023-02-28T18:17:11;5.90;54.60
52963;DHT22;38827;53.024;6.596;2023-02-28T18:19:40;5.80;54.70
52963;DHT22;38827;53.024;6.596;2023-02-28T18:22:15;5.80;54.90
52963;DHT22;38827;53.024;6.596;2023-02-28T18:24:49;5.70;55.40
52963;DHT22;38827;53.024;6.596;2023-02-28T18:27:28;5.60;55.50
52963;DHT22;38827;53.024;6.596;2023-02-28T18:30:11;5.50;55.60
52963;DHT22;38827;53.024;6.596;2023-02-28T18:32:59;5.50;56.00
52963;DHT22;38827;53.024;6.596;2023-02-28T18:35:54;5.40;56.20
52963;DHT22;38827;53.024;6.596;2023-02-28T18:38:34;5.40;56.60
52963;DHT22;38827;53.024;6.596;2023-02-28T18:41:05;5.30;56.80
52963;DHT22;38827;53.024;6.596;2023-02-28T18:43:44;5.30;57.00
52963;DHT22;38827;53.024;6.596;2023-02-28T18:46:34;5.20;57.10
52963;DHT22;38827;53.024;6.596;2023-02-28T18:52:32;5.20;57.70
52963;DHT22;38827;53.024;6.596;2023-02-28T18:55:08;5.10;58.10
52963;DHT22;38827;53.024;6.596;2023-02-28T18:57:38;5.10;58.10
52963;DHT22;38827;53.024;6.596;2023-02-28T19:00:20;5.00;58.40
52963;DHT22;38827;53.024;6.596;2023-02-28T19:03:01;5.00;58.60
52963;DHT22;38827;53.024;6.596;2023-02-28T19:05:39;5.00;58.80
52963;DHT22;38827;53.024;6.596;2023-02-28T19:11:24;4.80;59.00
52963;DHT22;38827;53.024;6.596;2023-02-28T19:13:54;4.70;59.10
52963;DHT22;38827;53.024;6.596;2023-02-28T19:16:23;4.60;59.20
52963;DHT22;38827;53.024;6.596;2023-02-28T19:18:57;4.60;59.20
52963;DHT22;38827;53.024;6.596;2023-02-28T19:21:26;4.50;59.50
52963;DHT22;38827;53.024;6.596;2023-02-28T19:23:57;4.40;59.90
52963;DHT22;38827;53.024;6.596;2023-02-28T19:26:33;4.40;60.20
52963;DHT22;38827;53.024;6.596;2023-02-28T19:29:08;4.30;60.30
52963;DHT22;38827;53.024;6.596;2023-02-28T19:32:10;4.20;60.80
52963;DHT22;38827;53.024;6.596;2023-02-28T19:34:36;4.20;61.00
52963;DHT22;38827;53.024;6.596;2023-02-28T19:40:11;4.00;60.80
52963;DHT22;38827;53.024;6.596;2023-02-28T19:42:38;3.90;61.30
52963;DHT22;38827;53.024;6.596;2023-02-28T19:45:04;3.90;61.50
52963;DHT22;38827;53.024;6.596;2023-02-28T19:47:31;3.80;62.00
52963;DHT22;38827;53.024;6.596;2023-02-28T19:49:57;3.80;62.30
52963;DHT22;38827;53.024;6.596;2023-02-28T19:52:23;3.70;62.50
52963;DHT22;38827;53.024;6.596;2023-02-28T19:54:50;3.70;62.90
52963;DHT22;38827;53.024;6.596;2023-02-28T19:57:16;3.70;63.40
52963;DHT22;38827;53.024;6.596;2023-02-28T19:59:43;3.60;63.30
52963;DHT22;38827;53.024;6.596;2023-02-28T20:02:17;3.60;63.60
52963;DHT22;38827;53.024;6.596;2023-02-28T20:04:47;3.60;63.80
52963;DHT22;38827;53.024;6.596;2023-02-28T20:07:14;3.50;64.10
52963;DHT22;38827;53.024;6.596;2023-02-28T20:09:48;3.50;64.00
52963;DHT22;38827;53.024;6.596;2023-02-28T20:12:26;3.50;64.10
52963;DHT22;38827;53.024;6.596;2023-02-28T20:14:56;3.50;64.30
52963;DHT22;38827;53.024;6.596;2023-02-28T20:17:27;3.40;64.40
52963;DHT22;38827;53.024;6.596;2023-02-28T20:20:10;3.40;64.50
52963;DHT22;38827;53.024;6.596;2023-02-28T20:23:10;3.30;64.60
52963;DHT22;38827;53.024;6.596;2023-02-28T20:25:39;3.30;65.00
52963;DHT22;38827;53.024;6.596;2023-02-28T20:28:17;3.20;65.30
52963;DHT22;38827;53.024;6.596;2023-02-28T20:30:45;3.30;65.60
52963;DHT22;38827;53.024;6.596;2023-02-28T20:33:27;3.20;65.80
52963;DHT22;38827;53.024;6.596;2023-02-28T20:36:02;3.20;66.10
52963;DHT22;38827;53.024;6.596;2023-02-28T20:38:43;3.20;66.30
52963;DHT22;38827;53.024;6.596;2023-02-28T20:41:22;3.20;66.30
52963;DHT22;38827;53.024;6.596;2023-02-28T20:44:00;3.20;66.80
52963;DHT22;38827;53.024;6.596;2023-02-28T20:46:44;3.20;67.00
52963;DHT22;38827;53.024;6.596;2023-02-28T20:49:13;3.20;66.90
52963;DHT22;38827;53.024;6.596;2023-02-28T20:52:15;3.10;66.60
52963;DHT22;38827;53.024;6.596;2023-02-28T20:54:47;3.10;66.50
52963;DHT22;38827;53.024;6.596;2023-02-28T20:57:14;3.00;66.80
52963;DHT22;38827;53.024;6.596;2023-02-28T20:59:43;3.00;66.90
52963;DHT22;38827;53.024;6.596;2023-02-28T21:02:14;3.00;67.40
52963;DHT22;38827;53.024;6.596;2023-02-28T21:05:05;2.90;67.50
52963;DHT22;38827;53.024;6.596;2023-02-28T21:07:35;2.90;67.40
52963;DHT22;38827;53.024;6.596;2023-02-28T21:10:05;2.90;67.30
52963;DHT22;38827;53.024;6.596;2023-02-28T21:12:52;2.80;67.60
52963;DHT22;38827;53.024;6.596;2023-02-28T21:15:28;2.70;67.20
52963;DHT22;38827;53.024;6.596;2023-02-28T21:20:52;2.70;67.80
52963;DHT22;38827;53.024;6.596;2023-02-28T21:23:20;2.60;67.80
52963;DHT22;38827;53.024;6.596;2023-02-28T21:25:59;2.60;67.70
52963;DHT22;38827;53.024;6.596;2023-02-28T21:28:31;2.60;68.10
52963;DHT22;38827;53.024;6.596;2023-02-28T21:31:31;2.60;68.40
52963;DHT22;38827;53.024;6.596;2023-02-28T21:34:04;2.60;68.70
52963;DHT22;38827;53.024;6.596;2023-02-28T21:39:42;2.50;68.60
52963;DHT22;38827;53.024;6.596;2023-02-28T21:42:13;2.50;69.00
52963;DHT22;38827;53.024;6.596;2023-02-28T21:44:52;2.40;68.80
52963;DHT22;38827;53.024;6.596;2023-02-28T21:47:19;2.40;68.90
52963;DHT22;38827;53.024;6.596;2023-02-28T21:49:58;2.30;69.30
52963;DHT22;38827;53.024;6.596;2023-02-28T21:52:26;2.30;69.60
52963;DHT22;38827;53.024;6.596;2023-02-28T21:55:03;2.30;69.60
52963;DHT22;38827;53.024;6.596;2023-02-28T21:57:36;2.30;69.70
52963;DHT22;38827;53.024;6.596;2023-02-28T22:00:07;2.30;69.80
52963;DHT22;38827;53.024;6.596;2023-02-28T22:02:36;2.30;69.70
52963;DHT22;38827;53.024;6.596;2023-02-28T22:05:05;2.20;70.20
52963;DHT22;38827;53.024;6.596;2023-02-28T22:07:36;2.20;70.50
52963;DHT22;38827;53.024;6.596;2023-02-28T22:10:24;2.20;70.60
52963;DHT22;38827;53.024;6.596;2023-02-28T22:13:02;2.10;70.80
52963;DHT22;38827;53.024;6.596;2023-02-28T22:15:35;2.10;70.70
52963;DHT22;38827;53.024;6.596;2023-02-28T22:18:04;2.10;70.70
52963;DHT22;38827;53.024;6.596;2023-02-28T22:20:33;2.00;70.70
52963;DHT22;38827;53.024;6.596;2023-02-28T22:23:04;2.00;70.80
52963;DHT22;38827;53.024;6.596;2023-02-28T22:25:36;1.90;70.90
52963;DHT22;38827;53.024;6.596;2023-02-28T22:28:02;1.90;70.90
52963;DHT22;38827;53.024;6.596;2023-02-28T22:30:27;1.80;71.00
52963;DHT22;38827;53.024;6.596;2023-02-28T22:32:58;1.80;71.20
52963;DHT22;38827;53.024;6.596;2023-02-28T22:35:27;1.80;71.70
52963;DHT22;38827;53.024;6.596;2023-02-28T22:38:00;1.80;71.70
52963;DHT22;38827;53.024;6.596;2023-02-28T22:40:40;1.80;71.60
52963;DHT22;38827;53.024;6.596;2023-02-28T22:43:11;1.70;71.30
52963;DHT22;38827;53.024;6.596;2023-02-28T22:45:38;1.70;71.30
52963;DHT22;38827;53.024;6.596;2023-02-28T22:48:05;1.60;71.40
52963;DHT22;38827;53.024;6.596;2023-02-28T22:50:32;1.60;71.50
52963;DHT22;38827;53.024;6.596;2023-02-28T22:52:57;1.50;72.00
52963;DHT22;38827;53.024;6.596;2023-02-28T22:55:23;1.50;72.00
52963;DHT22;38827;53.024;6.596;2023-02-28T22:57:49;1.50;72.00
52963;DHT22;38827;53.024;6.596;2023-02-28T23:00:15;1.40;71.80
52963;DHT22;38827;53.024;6.596;2023-02-28T23:02:42;1.30;71.80
52963;DHT22;38827;53.024;6.596;2023-02-28T23:05:08;1.30;71.90
52963;DHT22;38827;53.024;6.596;2023-02-28T23:07:34;1.30;72.20
52963;DHT22;38827;53.024;6.596;2023-02-28T23:10:08;1.20;72.20
52963;DHT22;38827;53.024;6.596;2023-02-28T23:12:35;1.20;72.40
52963;DHT22;38827;53.024;6.596;2023-02-28T23:15:01;1.20;72.40
52963;DHT22;38827;53.024;6.596;2023-02-28T23:17:27;1.20;72.20
52963;DHT22;38827;53.024;6.596;2023-02-28T23:19:52;1.10;72.20
52963;DHT22;38827;53.024;6.596;2023-02-28T23:22:18;1.10;72.30
52963;DHT22;38827;53.024;6.596;2023-02-28T23:24:44;1.00;72.50
52963;DHT22;38827;53.024;6.596;2023-02-28T23:27:12;1.00;72.50
52963;DHT22;38827;53.024;6.596;2023-02-28T23:29:38;1.00;72.70
52963;DHT22;38827;53.024;6.596;2023-02-28T23:32:04;1.00;73.10
52963;DHT22;38827;53.024;6.596;2023-02-28T23:34:31;1.00;73.30
52963;DHT22;38827;53.024;6.596;2023-02-28T23:36:59;1.00;73.50
52963;DHT22;38827;53.024;6.596;2023-02-28T23:39:26;1.00;73.50
52963;DHT22;38827;53.024;6.596;2023-02-28T23:41:52;1.00;73.80
52963;DHT22;38827;53.024;6.596;2023-02-28T23:44:18;0.90;73.90
52963;DHT22;38827;53.024;6.596;2023-02-28T23:46:45;0.80;73.40
52963;DHT22;38827;53.024;6.596;2023-02-28T23:49:12;0.90;73.60
52963;DHT22;38827;53.024;6.596;2023-02-28T23:51:41;0.90;73.80
52963;DHT22;38827;53.024;6.596;2023-02-28T23:54:07;0.90;74.00
52963;DHT22;38827;53.024;6.596;2023-02-28T23:56:33;0.90;74.00
52963;DHT22;38827;53.024;6.596;2023-02-28T23:58:58;0.90;73.90
